Observation data for Childress on 08/20/2019      Previous  Date       Current Mesonet Observations  Soil Data  Daily Summary Page  Observations in Plain Language
KCXS 200500Z 16013KT 31/16 A2998 RMK A01 T03100156  RH  041%=      5-min Rain = 0
KCXS 200505Z 16013KT 31/16 A2998 RMK A01 T03080158  RH  042%=      5-min Rain = 0
KCXS 200510Z 15012KT 31/16 A2998 RMK A01 T03050158  RH  043%=      5-min Rain = 0
KCXS 200515Z 15012KT 30/16 A2998 RMK A01 T03030159  RH  044%=      5-min Rain = 0
KCXS 200520Z 16012KT 30/16 A2998 RMK A01 T03010160  RH  044%=      5-min Rain = 0
KCXS 200525Z 16012KT 30/16 A2998 RMK A01 T03000159  RH  045%=      5-min Rain = 0
KCXS 200530Z 15012KT 30/16 A2998 RMK A01 T02990159  RH  045%=      5-min Rain = 0
KCXS 200535Z 15011KT 30/16 A2999 RMK A01 T02960160  RH  046%=      5-min Rain = 0
KCXS 200540Z 15010KT 29/16 A2999 RMK A01 T02940161  RH  047%=      5-min Rain = 0
KCXS 200545Z 15010KT 29/16 A2999 RMK A01 T02910161  RH  048%=      5-min Rain = 0
KCXS 200550Z 15011KT 29/16 A2999 RMK A01 T02890161  RH  048%=      5-min Rain = 0
KCXS 200555Z 15011KT 29/16 A2999 RMK A01 T02880161  RH  048%=      5-min Rain = 0
KCXS 200600Z 15011KT 29/16 A2999 RMK A01 T02880161  RH  049%=      5-min Rain = 0
KCXS 200605Z 15011KT 29/16 A2999 RMK A01 T02870161  RH  049%=      5-min Rain = 0
KCXS 200610Z 15011KT 29/16 A30 RMK A01 T02870162  RH  049%=      5-min Rain = 0
KCXS 200615Z 15011KT 29/16 A30 RMK A01 T02860163  RH  050%=      5-min Rain = 0
KCXS 200620Z 15012KT 29/16 A30 RMK A01 T02860164  RH  050%=      5-min Rain = 0
KCXS 200625Z 15011KT 29/16 A30 RMK A01 T02860164  RH  050%=      5-min Rain = 0
KCXS 200630Z 16011KT 29/17 A30 RMK A01 T02860165  RH  050%=      5-min Rain = 0
KCXS 200635Z 16011KT 29/17 A30 RMK A01 T02850165  RH  051%=      5-min Rain = 0
KCXS 200640Z 16011KT 29/17 A30 RMK A01 T02850165  RH  051%=      5-min Rain = 0
KCXS 200645Z 16011KT 29/17 A30 RMK A01 T02850166  RH  051%=      5-min Rain = 0
KCXS 200650Z 16012KT 29/17 A30 RMK A01 T02850166  RH  051%=      5-min Rain = 0
KCXS 200655Z 16012KT 29/17 A2999 RMK A01 T02850166  RH  051%=      5-min Rain = 0
KCXS 200700Z 16011KT 28/17 A30 RMK A01 T02830167  RH  052%=      5-min Rain = 0
KCXS 200705Z 16011KT 28/17 A30 RMK A01 T02830167  RH  052%=      5-min Rain = 0
KCXS 200710Z 16011KT 28/17 A30 RMK A01 T02810168  RH  053%=      5-min Rain = 0
KCXS 200715Z 16011KT 28/17 A30 RMK A01 T02800168  RH  053%=      5-min Rain = 0
KCXS 200720Z 16010KT 28/17 A30 RMK A01 T02800169  RH  053%=      5-min Rain = 0
KCXS 200725Z 16011KT 28/17 A30 RMK A01 T02790169  RH  054%=      5-min Rain = 0
KCXS 200730Z 16010KT 28/17 A30 RMK A01 T02780170  RH  054%=      5-min Rain = 0
KCXS 200735Z 16010KT 28/17 A30 RMK A01 T02770170  RH  055%=      5-min Rain = 0
KCXS 200740Z 16010KT 28/17 A30 RMK A01 T02760171  RH  055%=      5-min Rain = 0
KCXS 200745Z 16010KT 28/17 A2999 RMK A01 T02750171  RH  056%=      5-min Rain = 0
KCXS 200750Z 16010KT 27/17 A2999 RMK A01 T02740171  RH  056%=      5-min Rain = 0
KCXS 200755Z 16010KT 27/17 A2999 RMK A01 T02740171  RH  056%=      5-min Rain = 0
KCXS 200800Z 16010KT 27/17 A2999 RMK A01 T02730172  RH  057%=      5-min Rain = 0
KCXS 200805Z 17010KT 27/17 A2999 RMK A01 T02720172  RH  057%=      5-min Rain = 0
KCXS 200810Z 16010KT 27/17 A2999 RMK A01 T02720172  RH  057%=      5-min Rain = 0
KCXS 200815Z 16010KT 27/17 A2999 RMK A01 T02730172  RH  057%=      5-min Rain = 0
KCXS 200820Z 16010KT 27/17 A2999 RMK A01 T02730172  RH  057%=      5-min Rain = 0
KCXS 200825Z 16010KT 27/17 A2999 RMK A01 T02710172  RH  057%=      5-min Rain = 0
KCXS 200830Z 16010KT 27/17 A2999 RMK A01 T02710172  RH  057%=      5-min Rain = 0
KCXS 200835Z 17011KT 27/17 A2999 RMK A01 T02710172  RH  057%=      5-min Rain = 0
KCXS 200840Z 17011KT 27/17 A2999 RMK A01 T02710172  RH  057%=      5-min Rain = 0
KCXS 200845Z 16010KT 27/17 A2999 RMK A01 T02710172  RH  058%=      5-min Rain = 0
KCXS 200850Z 17010KT 27/17 A2999 RMK A01 T02700173  RH  058%=      5-min Rain = 0
KCXS 200855Z 17011KT 27/17 A2999 RMK A01 T02690173  RH  058%=      5-min Rain = 0
KCXS 200900Z 17010KT 27/17 A2999 RMK A01 T02690173  RH  059%=      5-min Rain = 0
KCXS 200905Z 17010KT 27/17 A30 RMK A01 T02670173  RH  059%=      5-min Rain = 0
KCXS 200910Z 17010KT 27/17 A30 RMK A01 T02660174  RH  060%=      5-min Rain = 0
KCXS 200915Z 17010KT 27/17 A30 RMK A01 T02660174  RH  060%=      5-min Rain = 0
KCXS 200920Z 17010KT 26/17 A30 RMK A01 T02640174  RH  061%=      5-min Rain = 0
KCXS 200925Z 17010KT 26/17 A30 RMK A01 T02620174  RH  062%=      5-min Rain = 0
KCXS 200930Z 17010KT 26/17 A30 RMK A01 T02610174  RH  062%=      5-min Rain = 0
KCXS 200935Z 17009KT 26/18 A30 RMK A01 T02600175  RH  062%=      5-min Rain = 0
KCXS 200940Z 17008KT 26/18 A30 RMK A01 T02590175  RH  063%=      5-min Rain = 0
KCXS 200945Z 17008KT 26/18 A30 RMK A01 T02580175  RH  063%=      5-min Rain = 0
KCXS 200950Z 17007KT 26/18 A30 RMK A01 T02570175  RH  064%=      5-min Rain = 0
KCXS 200955Z 18006KT 26/18 A3001 RMK A01 T02570175  RH  064%=      5-min Rain = 0
KCXS 201000Z 18006KT 26/18 A3001 RMK A01 T02550175  RH  065%=      5-min Rain = 0
KCXS 201005Z 17006KT 25/18 A3001 RMK A01 T02530176  RH  065%=      5-min Rain = 0
KCXS 201010Z 17006KT 25/18 A3001 RMK A01 T02500176  RH  067%=      5-min Rain = 0
KCXS 201015Z 17007KT 25/18 A3001 RMK A01 T02480176  RH  068%=      5-min Rain = 0
KCXS 201020Z 17007KT 25/18 A3001 RMK A01 T02480176  RH  068%=      5-min Rain = 0
KCXS 201025Z 16008KT 25/18 A3001 RMK A01 T02480177  RH  068%=      5-min Rain = 0
KCXS 201030Z 15008KT 25/18 A3001 RMK A01 T02470178  RH  069%=      5-min Rain = 0
KCXS 201035Z 16008KT 25/18 A3001 RMK A01 T02450177  RH  069%=      5-min Rain = 0
KCXS 201040Z 16007KT 25/18 A3001 RMK A01 T02450177  RH  069%=      5-min Rain = 0
KCXS 201045Z 16006KT 24/18 A3001 RMK A01 T02440177  RH  070%=      5-min Rain = 0
KCXS 201050Z 15005KT 24/18 A3001 RMK A01 T02410178  RH  071%=      5-min Rain = 0
KCXS 201055Z 16006KT 24/18 A3001 RMK A01 T02380178  RH  073%=      5-min Rain = 0
KCXS 201100Z 17007KT 24/18 A3001 RMK A01 T02360179  RH  075%=      5-min Rain = 0
KCXS 201105Z 17008KT 24/18 A3001 RMK A01 T02360180  RH  074%=      5-min Rain = 0
KCXS 201110Z 17008KT 24/18 A3002 RMK A01 T02370179  RH  074%=      5-min Rain = 0
KCXS 201115Z 17008KT 24/18 A3001 RMK A01 T02370180  RH  074%=      5-min Rain = 0
KCXS 201120Z 17009KT 24/18 A3001 RMK A01 T02380179  RH  073%=      5-min Rain = 0
KCXS 201125Z 17009KT 24/18 A3002 RMK A01 T02410179  RH  072%=      5-min Rain = 0
KCXS 201130Z 17009KT 24/18 A3002 RMK A01 T02420178  RH  071%=      5-min Rain = 0
KCXS 201135Z 17008KT 24/18 A3002 RMK A01 T02430177  RH  070%=      5-min Rain = 0
KCXS 201140Z 17008KT 24/18 A3002 RMK A01 T02440177  RH  070%=      5-min Rain = 0
KCXS 201145Z 16008KT 24/18 A3002 RMK A01 T02440177  RH  070%=      5-min Rain = 0
KCXS 201150Z 16008KT 24/18 A3002 RMK A01 T02430177  RH  070%=      5-min Rain = 0
KCXS 201155Z 17007KT 24/18 A3002 RMK A01 T02400178  RH  072%=      5-min Rain = 0
KCXS 201200Z 17008KT 24/18 A3002 RMK A01 T02410177  RH  071%=      5-min Rain = 0
KCXS 201205Z 17008KT 24/18 A3002 RMK A01 T02420176  RH  070%=      5-min Rain = 0
KCXS 201210Z 18008KT 24/18 A3002 RMK A01 T02440175  RH  069%=      5-min Rain = 0
KCXS 201215Z 18008KT 25/18 A3002 RMK A01 T02450175  RH  068%=      5-min Rain = 0
KCXS 201220Z 18008KT 25/18 A3002 RMK A01 T02460175  RH  068%=      5-min Rain = 0
KCXS 201225Z 18008KT 25/18 A3003 RMK A01 T02480175  RH  067%=      5-min Rain = 0
KCXS 201230Z 18007KT 25/18 A3003 RMK A01 T02480176  RH  068%=      5-min Rain = 0
KCXS 201235Z 19006KT 25/18 A3003 RMK A01 T02480177  RH  068%=      5-min Rain = 0
KCXS 201240Z 18007KT 25/18 A3003 RMK A01 T02500176  RH  067%=      5-min Rain = 0
KCXS 201245Z 18007KT 25/18 A3003 RMK A01 T02530177  RH  066%=      5-min Rain = 0
KCXS 201250Z 18007KT 25/18 A3003 RMK A01 T02530177  RH  066%=      5-min Rain = 0
KCXS 201255Z 18006KT 26/18 A3003 RMK A01 T02550178  RH  066%=      5-min Rain = 0
KCXS 201300Z 18006KT 25/18 A3003 RMK A01 T02540179  RH  067%=      5-min Rain = 0
KCXS 201305Z 18006KT 26/18 A3004 RMK A01 T02560180  RH  066%=      5-min Rain = 0
KCXS 201310Z 17007KT 26/18 A3004 RMK A01 T02590179  RH  065%=      5-min Rain = 0
KCXS 201315Z 17007KT 26/18 A3004 RMK A01 T02600179  RH  064%=      5-min Rain = 0
KCXS 201320Z 17007KT 26/18 A3004 RMK A01 T02630179  RH  063%=      5-min Rain = 0
KCXS 201325Z 17007KT 27/18 A3004 RMK A01 T02650180  RH  063%=      5-min Rain = 0
KCXS 201330Z 17007KT 27/18 A3004 RMK A01 T02670180  RH  062%=      5-min Rain = 0
KCXS 201335Z 16006KT 27/18 A3005 RMK A01 T02700181  RH  062%=      5-min Rain = 0
KCXS 201340Z 16006KT 27/18 A3005 RMK A01 T02700180  RH  061%=      5-min Rain = 0
KCXS 201345Z 16006KT 27/18 A3005 RMK A01 T02710180  RH  061%=      5-min Rain = 0
KCXS 201350Z 16006KT 27/18 A3005 RMK A01 T02700179  RH  061%=      5-min Rain = 0
KCXS 201355Z 17006KT 27/18 A3005 RMK A01 T02690181  RH  062%=      5-min Rain = 0
KCXS 201400Z 18006KT 27/18 A3005 RMK A01 T02740181  RH  060%=      5-min Rain = 0
KCXS 201405Z 20006KT 28/18 A3005 RMK A01 T02780179  RH  058%=      5-min Rain = 0
KCXS 201410Z 20007KT 28/18 A3005 RMK A01 T02810177  RH  056%=      5-min Rain = 0
KCXS 201415Z 21007KT 28/18 A3005 RMK A01 T02840177  RH  055%=      5-min Rain = 0
KCXS 201420Z 21008KT 29/18 A3005 RMK A01 T02870177  RH  054%=      5-min Rain = 0
KCXS 201425Z 21008KT 29/18 A3005 RMK A01 T02900178  RH  054%=      5-min Rain = 0
KCXS 201430Z 21008KT 29/18 A3005 RMK A01 T02930177  RH  052%=      5-min Rain = 0
KCXS 201435Z 21009KT 30/18 A3005 RMK A01 T02970176  RH  051%=      5-min Rain = 0
KCXS 201440Z 21009KT 30/18 A3005 RMK A01 T02990175  RH  050%=      5-min Rain = 0
KCXS 201445Z 21008KT 30/18 A3005 RMK A01 T03030176  RH  049%=      5-min Rain = 0
KCXS 201450Z 22009KT 30/17 A3005 RMK A01 T03030173  RH  048%=      5-min Rain = 0
KCXS 201455Z 23009KT 31/17 A3005 RMK A01 T03060174  RH  048%=      5-min Rain = 0
KCXS 201500Z 22009KT 31/18 A3005 RMK A01 T03070175  RH  047%=      5-min Rain = 0
KCXS 201505Z 22008KT 31/18 A3005 RMK A01 T03120176  RH  047%=      5-min Rain = 0
KCXS 201510Z 22010G16KT 31/17 A3005 RMK A01 T03120174  RH  046%=      5-min Rain = 0
KCXS 201515Z 23009KT 31/18 A3004 RMK A01 T03130175  RH  046%=      5-min Rain = 0
KCXS 201520Z 22010KT 32/17 A3004 RMK A01 T03150174  RH  045%=      5-min Rain = 0
KCXS 201525Z 23010KT 32/17 A3004 RMK A01 T03150174  RH  045%=      5-min Rain = 0
KCXS 201530Z 24010G15KT 32/17 A3004 RMK A01 T03170173  RH  044%=      5-min Rain = 0
KCXS 201535Z 23009KT 32/18 A3005 RMK A01 T03180175  RH  045%=      5-min Rain = 0
KCXS 201540Z 23010G15KT 32/18 A3005 RMK A01 T03190175  RH  044%=      5-min Rain = 0
KCXS 201545Z 23009G15KT 32/18 A3005 RMK A01 T03210175  RH  044%=      5-min Rain = 0
KCXS 201550Z 22009KT 32/18 A3005 RMK A01 T03220175  RH  044%=      5-min Rain = 0
KCXS 201555Z 24008KT 33/18 A3005 RMK A01 T03250178  RH  044%=      5-min Rain = 0
KCXS 201600Z 24008KT 33/18 A3005 RMK A01 T03270176  RH  043%=      5-min Rain = 0
KCXS 201605Z 24009KT 33/18 A3005 RMK A01 T03270176  RH  043%=      5-min Rain = 0
KCXS 201610Z 24008KT 33/18 A3005 RMK A01 T03290175  RH  042%=      5-min Rain = 0
KCXS 201615Z 24009KT 33/17 A3005 RMK A01 T03310174  RH  041%=      5-min Rain = 0
KCXS 201620Z 25007KT 33/18 A3005 RMK A01 T03330176  RH  041%=      5-min Rain = 0
KCXS 201625Z 24007KT 34/18 A3005 RMK A01 T03360177  RH  041%=      5-min Rain = 0
KCXS 201630Z 23006KT 34/18 A3005 RMK A01 T03390176  RH  040%=      5-min Rain = 0
KCXS 201635Z 24007G13KT 34/18 A3005 RMK A01 T03410176  RH  040%=      5-min Rain = 0
KCXS 201640Z 26009KT 34/17 A3005 RMK A01 T03430173  RH  038%=      5-min Rain = 0
KCXS 201645Z 22008KT 35/17 A3005 RMK A01 T03470173  RH  038%=      5-min Rain = 0
KCXS 201650Z 23007KT 35/17 A3005 RMK A01 T03460172  RH  037%=      5-min Rain = 0
KCXS 201655Z 23008KT 35/17 A3005 RMK A01 T03490174  RH  037%=      5-min Rain = 0
KCXS 201700Z 24006KT 35/17 A3005 RMK A01 T03490174  RH  037%=      5-min Rain = 0
KCXS 201705Z 24006KT 35/17 A3005 RMK A01 T03490173  RH  037%=      5-min Rain = 0
KCXS 201710Z 24006KT 35/18 A3005 RMK A01 T03520175  RH  037%=      5-min Rain = 0
KCXS 201715Z 25005KT 35/17 A3005 RMK A01 T03520174  RH  037%=      5-min Rain = 0
KCXS 201720Z 22003KT 35/17 A3005 RMK A01 T03540173  RH  036%=      5-min Rain = 0
KCXS 201725Z 23005KT 36/17 A3005 RMK A01 T03550172  RH  036%=      5-min Rain = 0
KCXS 201730Z 26005KT 35/17 A3005 RMK A01 T03540170  RH  036%=      5-min Rain = 0
KCXS 201735Z 21004KT 35/17 A3005 RMK A01 T03500170  RH  036%=      5-min Rain = 0
KCXS 201740Z 24002KT 35/17 A3005 RMK A01 T03460167  RH  036%=      5-min Rain = 0
KCXS 201745Z 28002KT 35/17 A3004 RMK A01 T03500168  RH  036%=      5-min Rain = 0
KCXS 201750Z 29004KT 36/17 A3004 RMK A01 T03550169  RH  035%=      5-min Rain = 0
KCXS 201755Z 33004KT 36/17 A3004 RMK A01 T03560171  RH  035%=      5-min Rain = 0
KCXS 201800Z 15002KT 36/17 A3004 RMK A01 T03600173  RH  035%=      5-min Rain = 0
KCXS 201805Z 15005KT 36/17 A3004 RMK A01 T03630169  RH  034%=      5-min Rain = 0
KCXS 201810Z 16002KT 36/17 A3004 RMK A01 T03610166  RH  033%=      5-min Rain = 0
KCXS 201815Z 12002G7KT 36/17 A3004 RMK A01 T03630169  RH  033%=      5-min Rain = 0
KCXS 201820Z 16007KT 37/16 A3004 RMK A01 T03670160  RH  031%=      5-min Rain = 0
KCXS 201825Z 16005G10KT 37/16 A3003 RMK A01 T03690161  RH  031%=      5-min Rain = 0
KCXS 201830Z 24005G11KT 37/16 A3003 RMK A01 T03690164  RH  031%=      5-min Rain = 0
KCXS 201835Z 19008KT 37/16 A3003 RMK A01 T03650157  RH  031%=      5-min Rain = 0
KCXS 201840Z 20008G14KT 36/16 A3003 RMK A01 T03630155  RH  031%=      5-min Rain = 0
KCXS 201845Z 17007KT 37/16 A3003 RMK A01 T03700155  RH  029%=      5-min Rain = 0
KCXS 201850Z 15010G15KT 37/16 A3003 RMK A01 T03720160  RH  030%=      5-min Rain = 0
KCXS 201855Z 14006KT 37/16 A3003 RMK A01 T03710157  RH  030%=      5-min Rain = 0
KCXS 201900Z 16009G14KT 37/16 A3003 RMK A01 T03730160  RH  030%=      5-min Rain = 0
KCXS 201905Z 18007G14KT 38/16 A3003 RMK A01 T03750159  RH  029%=      5-min Rain = 0
KCXS 201910Z 19009G14KT 38/16 A3003 RMK A01 T03770158  RH  029%=      5-min Rain = 0
KCXS 201915Z 16010KT 38/16 A3002 RMK A01 T03750158  RH  029%=      5-min Rain = 0
KCXS 201920Z 17006G14KT 37/16 A3002 RMK A01 T03730156  RH  029%=      5-min Rain = 0
KCXS 201925Z 22006G12KT 38/16 A3002 RMK A01 T03750159  RH  029%=      5-min Rain = 0
KCXS 201930Z 19010G16KT 38/15 A3002 RMK A01 T03760153  RH  028%=      5-min Rain = 0
KCXS 201935Z 15011KT 38/16 A3002 RMK A01 T03760155  RH  028%=      5-min Rain = 0
KCXS 201940Z 14004KT 38/16 A3002 RMK A01 T03780155  RH  028%=      5-min Rain = 0
KCXS 201945Z 18006G11KT 38/15 A3001 RMK A01 T03790154  RH  028%=      5-min Rain = 0
KCXS 201950Z 18009G16KT 38/15 A3001 RMK A01 T03790154  RH  028%=      5-min Rain = 0
KCXS 201955Z 15009G15KT 38/15 A3001 RMK A01 T03790154  RH  028%=      5-min Rain = 0
KCXS 202000Z 17010KT 38/16 A3001 RMK A01 T03800158  RH  028%=      5-min Rain = 0
KCXS 202005Z 16008G15KT 38/16 A30 RMK A01 T03800160  RH  029%=      5-min Rain = 0
KCXS 202010Z 16009G15KT 38/16 A30 RMK A01 T03790157  RH  028%=      5-min Rain = 0
KCXS 202015Z 17009G15KT 38/16 A30 RMK A01 T03790156  RH  028%=      5-min Rain = 0
KCXS 202020Z 15008KT 38/16 A30 RMK A01 T03790158  RH  028%=      5-min Rain = 0
KCXS 202025Z 15007KT 38/16 A2999 RMK A01 T03810158  RH  028%=      5-min Rain = 0
KCXS 202030Z 15010KT 38/15 A2999 RMK A01 T03810152  RH  027%=      5-min Rain = 0
KCXS 202035Z 14008G13KT 38/15 A2999 RMK A01 T03810152  RH  027%=      5-min Rain = 0
KCXS 202040Z 15009G14KT 38/15 A2999 RMK A01 T03830149  RH  026%=      5-min Rain = 0
KCXS 202045Z 13007G12KT 38/15 A2998 RMK A01 T03810146  RH  026%=      5-min Rain = 0
KCXS 202050Z 14006KT 38/15 A2998 RMK A01 T03810153  RH  027%=      5-min Rain = 0
KCXS 202055Z 16011G17KT 38/16 A2998 RMK A01 T03840156  RH  027%=      5-min Rain = 0
KCXS 202100Z 16009KT 39/15 A2998 RMK A01 T03850154  RH  027%=      5-min Rain = 0
KCXS 202105Z 17010G15KT 38/15 A2998 RMK A01 T03830152  RH  027%=      5-min Rain = 0
KCXS 202110Z 18009G14KT 38/15 A2998 RMK A01 T03820149  RH  026%=      5-min Rain = 0
KCXS 202115Z 19007G14KT 38/15 A2998 RMK A01 T03820146  RH  026%=      5-min Rain = 0
KCXS 202120Z 18008G15KT 38/15 A2997 RMK A01 T03830150  RH  026%=      5-min Rain = 0
KCXS 202125Z 15009KT 39/15 A2997 RMK A01 T03850148  RH  026%=      5-min Rain = 0
KCXS 202130Z 16010KT 38/15 A2997 RMK A01 T03840146  RH  026%=      5-min Rain = 0
KCXS 202135Z 15009KT 38/14 A2997 RMK A01 T03820142  RH  025%=      5-min Rain = 0
KCXS 202140Z 16005KT 38/14 A2997 RMK A01 T03830143  RH  025%=      5-min Rain = 0
KCXS 202145Z 15004KT 39/14 A2997 RMK A01 T03850142  RH  025%=      5-min Rain = 0
KCXS 202150Z 18008KT 39/14 A2997 RMK A01 T03860144  RH  025%=      5-min Rain = 0
KCXS 202155Z 16011G16KT 39/15 A2996 RMK A01 T03860147  RH  025%=      5-min Rain = 0
KCXS 202200Z 15008KT 38/15 A2996 RMK A01 T03840148  RH  026%=      5-min Rain = 0
KCXS 202205Z 17010G15KT 38/15 A2996 RMK A01 T03840147  RH  026%=      5-min Rain = 0
KCXS 202210Z 19008KT 39/14 A2996 RMK A01 T03850143  RH  025%=      5-min Rain = 0
KCXS 202215Z 19005KT 38/14 A2996 RMK A01 T03840140  RH  025%=      5-min Rain = 0
KCXS 202220Z 19006G11KT 39/14 A2996 RMK A01 T03860144  RH  025%=      5-min Rain = 0
KCXS 202225Z 18009KT 39/14 A2996 RMK A01 T03850143  RH  025%=      5-min Rain = 0
KCXS 202230Z 16009KT 39/15 A2996 RMK A01 T03860150  RH  026%=      5-min Rain = 0
KCXS 202235Z 18008KT 39/14 A2996 RMK A01 T03860143  RH  025%=      5-min Rain = 0
KCXS 202240Z 15009KT 39/15 A2996 RMK A01 T03860149  RH  026%=      5-min Rain = 0
KCXS 202245Z 15011G17KT 39/15 A2995 RMK A01 T03860148  RH  026%=      5-min Rain = 0
KCXS 202250Z 17009G14KT 39/15 A2996 RMK A01 T03860148  RH  026%=      5-min Rain = 0
KCXS 202255Z 15011G16KT 39/14 A2995 RMK A01 T03850144  RH  025%=      5-min Rain = 0
KCXS 202300Z 15012G17KT 38/14 A2995 RMK A01 T03780143  RH  026%=      5-min Rain = 0
KCXS 202305Z 14010KT 37/15 A2995 RMK A01 T03730145  RH  027%=      5-min Rain = 0
KCXS 202310Z 14011KT 37/15 A2995 RMK A01 T03720146  RH  027%=      5-min Rain = 0
KCXS 202315Z 15011G17KT 37/14 A2995 RMK A01 T03690142  RH  027%=      5-min Rain = 0
KCXS 202320Z 17010G17KT 37/14 A2995 RMK A01 T03670140  RH  027%=      5-min Rain = 0
KCXS 202325Z 17011G17KT 37/14 A2995 RMK A01 T03660137  RH  027%=      5-min Rain = 0
KCXS 202330Z 17009KT 37/14 A2995 RMK A01 T03660139  RH  027%=      5-min Rain = 0
KCXS 202335Z 16009G15KT 37/14 A2995 RMK A01 T03650140  RH  027%=      5-min Rain = 0
KCXS 202340Z 15011KT 36/14 A2996 RMK A01 T03630138  RH  027%=      5-min Rain = 0
KCXS 202345Z 15010KT 36/14 A2996 RMK A01 T03600138  RH  028%=      5-min Rain = 0
KCXS 202350Z 15009KT 36/14 A2996 RMK A01 T03570137  RH  028%=      5-min Rain = 0
KCXS 202355Z 15009KT 36/14 A2996 RMK A01 T03560136  RH  028%=      5-min Rain = 0
KCXS 210000Z 16009KT 35/14 A2996 RMK A01 T03530139  RH  029%=      5-min Rain = 0
KCXS 210005Z 15009KT 35/14 A2996 RMK A01 T03540136  RH  028%=      5-min Rain = 0
KCXS 210010Z 14009KT 35/14 A2996 RMK A01 T03520137  RH  029%=      5-min Rain = 0
KCXS 210015Z 15010G15KT 35/14 A2995 RMK A01 T03500136  RH  029%=      5-min Rain = 0
KCXS 210020Z 15011KT 35/14 A2995 RMK A01 T03500135  RH  029%=      5-min Rain = 0
KCXS 210025Z 15009KT 35/14 A2995 RMK A01 T03480138  RH  029%=      5-min Rain = 0
KCXS 210030Z 15010KT 35/14 A2995 RMK A01 T03460137  RH  030%=      5-min Rain = 0
KCXS 210035Z 15011KT 35/14 A2995 RMK A01 T03470135  RH  029%=      5-min Rain = 0
KCXS 210040Z 14010KT 35/14 A2995 RMK A01 T03480136  RH  029%=      5-min Rain = 0
KCXS 210045Z 14008KT 35/14 A2996 RMK A01 T03460138  RH  030%=      5-min Rain = 0
KCXS 210050Z 14010KT 35/14 A2996 RMK A01 T03450136  RH  030%=      5-min Rain = 0
KCXS 210055Z 14009KT 35/14 A2996 RMK A01 T03450136  RH  030%=      5-min Rain = 0
KCXS 210100Z 14010KT 34/14 A2996 RMK A01 T03430135  RH  030%=      5-min Rain = 0
KCXS 210105Z 14009KT 34/13 A2996 RMK A01 T03420134  RH  030%=      5-min Rain = 0
KCXS 210110Z 15009KT 34/13 A2996 RMK A01 T03410134  RH  030%=      5-min Rain = 0
KCXS 210115Z 15008KT 34/14 A2997 RMK A01 T03380135  RH  031%=      5-min Rain = 0
KCXS 210120Z 15007KT 33/14 A2997 RMK A01 T03330137  RH  032%=      5-min Rain = 0
KCXS 210125Z 15007KT 33/14 A2997 RMK A01 T03280137  RH  033%=      5-min Rain = 0
KCXS 210130Z 15007KT 32/14 A2997 RMK A01 T03240137  RH  034%=      5-min Rain = 0
KCXS 210135Z 15007KT 32/14 A2997 RMK A01 T03200140  RH  035%=      5-min Rain = 0
KCXS 210140Z 15008KT 32/14 A2997 RMK A01 T03170141  RH  036%=      5-min Rain = 0
KCXS 210145Z 15008KT 32/14 A2997 RMK A01 T03160141  RH  036%=      5-min Rain = 0
KCXS 210150Z 15009KT 32/14 A2997 RMK A01 T03150141  RH  036%=      5-min Rain = 0
KCXS 210155Z 15008KT 32/14 A2997 RMK A01 T03160142  RH  036%=      5-min Rain = 0
KCXS 210200Z 15008KT 31/14 A2997 RMK A01 T03140144  RH  037%=      5-min Rain = 0
KCXS 210205Z 15008KT 31/15 A2998 RMK A01 T03110146  RH  038%=      5-min Rain = 0
KCXS 210210Z 15008KT 31/15 A2998 RMK A01 T03120145  RH  038%=      5-min Rain = 0
KCXS 210215Z 16008KT 31/15 A2998 RMK A01 T03120146  RH  038%=      5-min Rain = 0
KCXS 210220Z 16009KT 31/15 A2998 RMK A01 T03110146  RH  038%=      5-min Rain = 0
KCXS 210225Z 16008KT 31/15 A2998 RMK A01 T03110147  RH  039%=      5-min Rain = 0
KCXS 210230Z 16009KT 31/15 A2998 RMK A01 T03110146  RH  038%=      5-min Rain = 0
KCXS 210235Z 16009KT 31/15 A2999 RMK A01 T03120146  RH  038%=      5-min Rain = 0
KCXS 210240Z 16008KT 31/15 A2999 RMK A01 T03110147  RH  039%=      5-min Rain = 0
KCXS 210245Z 16009KT 31/15 A2999 RMK A01 T03090148  RH  039%=      5-min Rain = 0
KCXS 210250Z 15009KT 31/15 A30 RMK A01 T03080148  RH  040%=      5-min Rain = 0
KCXS 210255Z 16008KT 31/15 A30 RMK A01 T03060148  RH  040%=      5-min Rain = 0
KCXS 210300Z 15008KT 30/15 A30 RMK A01 T03030150  RH  041%=      5-min Rain = 0
KCXS 210305Z 15008KT 30/15 A30 RMK A01 T03000151  RH  042%=      5-min Rain = 0
KCXS 210310Z 15009KT 30/15 A3001 RMK A01 T02980150  RH  042%=      5-min Rain = 0
KCXS 210315Z 15009KT 30/15 A3001 RMK A01 T02970150  RH  043%=      5-min Rain = 0
KCXS 210320Z 15010KT 30/15 A3001 RMK A01 T02970149  RH  042%=      5-min Rain = 0
KCXS 210325Z 15010KT 30/15 A3001 RMK A01 T02980148  RH  042%=      5-min Rain = 0
KCXS 210330Z 15009KT 30/15 A3001 RMK A01 T02980148  RH  042%=      5-min Rain = 0
KCXS 210335Z 15009KT 30/15 A3001 RMK A01 T02960148  RH  042%=      5-min Rain = 0
KCXS 210340Z 15009KT 29/15 A3001 RMK A01 T02940149  RH  043%=      5-min Rain = 0
KCXS 210345Z 15009KT 29/15 A3001 RMK A01 T02920149  RH  043%=      5-min Rain = 0
KCXS 210350Z 15009KT 29/15 A3001 RMK A01 T02920148  RH  043%=      5-min Rain = 0
KCXS 210355Z 15009KT 29/15 A3001 RMK A01 T02920146  RH  043%=      5-min Rain = 0
KCXS 210400Z 15010KT 29/15 A3001 RMK A01 T02930145  RH  042%=      5-min Rain = 0
KCXS 210405Z 15010KT 30/14 A3001 RMK A01 T02950144  RH  042%=      5-min Rain = 0
KCXS 210410Z 15010KT 30/14 A3001 RMK A01 T02950144  RH  042%=      5-min Rain = 0
KCXS 210415Z 16010KT 30/14 A3001 RMK A01 T02950144  RH  042%=      5-min Rain = 0
KCXS 210420Z 16010KT 29/14 A3001 RMK A01 T02940144  RH  042%=      5-min Rain = 0
KCXS 210425Z 16010KT 29/14 A3001 RMK A01 T02940144  RH  042%=      5-min Rain = 0
KCXS 210430Z 16010KT 29/15 A3001 RMK A01 T02940145  RH  042%=      5-min Rain = 0
KCXS 210435Z 16010KT 29/15 A3001 RMK A01 T02940145  RH  042%=      5-min Rain = 0
KCXS 210440Z 16010KT 29/15 A3001 RMK A01 T02940145  RH  042%=      5-min Rain = 0
KCXS 210445Z 16010KT 29/15 A3001 RMK A01 T02930146  RH  042%=      5-min Rain = 0
KCXS 210450Z 16010KT 29/15 A3002 RMK A01 T02920146  RH  043%=      5-min Rain = 0
KCXS 210455Z 16010KT 29/15 A3002 RMK A01 T02910146  RH  043%=      5-min Rain = 0

Page generated in 0.009 seconds.